createdAt,value
2019-01-05T00:00:56.165Z,14.00
2019-01-05T00:03:36.824Z,13.23
2019-01-05T00:06:40.351Z,15.30
2019-01-05T00:09:40.555Z,15.83
2019-01-05T00:12:31.333Z,14.27
2019-01-05T00:15:19.569Z,14.53
2019-01-05T00:18:08.689Z,14.60
2019-01-05T00:20:47.801Z,13.37
2019-01-05T00:23:45.628Z,15.73
2019-01-05T00:26:52.261Z,14.53
2019-01-05T00:29:58.568Z,13.73
2019-01-05T00:32:49.823Z,15.07
2019-01-05T00:35:47.313Z,12.53
2019-01-05T00:38:39.936Z,15.63
2019-01-05T00:41:22.647Z,12.60
2019-01-05T00:44:15.530Z,15.17
2019-01-05T00:47:22.352Z,15.93
2019-01-05T00:50:20.968Z,13.53
2019-01-05T00:53:08.205Z,13.43
2019-01-05T00:56:09.936Z,15.53
2019-01-05T00:59:02.560Z,14.57
2019-01-05T01:01:49.737Z,15.53
2019-01-05T01:04:37.941Z,13.50
2019-01-05T01:07:26.156Z,13.70
2019-01-05T01:10:14.109Z,14.63
2019-01-05T01:12:57.916Z,13.87
2019-01-05T01:15:46.151Z,13.67
2019-01-05T01:18:43.991Z,15.53
2019-01-05T01:21:34.941Z,14.23
2019-01-05T01:24:38.479Z,13.80
2019-01-05T01:27:26.892Z,13.53
2019-01-05T01:30:15.327Z,14.97
2019-01-05T01:33:18.928Z,13.37
2019-01-05T01:36:07.508Z,13.07
2019-01-05T01:39:32.527Z,13.67
2019-01-05T01:42:19.285Z,14.17
2019-01-05T01:45:22.948Z,13.70
2019-01-05T01:48:11.854Z,14.53
2019-01-05T01:51:08.160Z,12.90
2019-01-05T01:53:55.997Z,12.20
2019-01-05T01:56:56.352Z,13.40
2019-01-05T02:00:17.147Z,14.40
2019-01-05T02:03:10.868Z,13.43
2019-01-05T02:06:11.912Z,13.60
2019-01-05T02:09:14.109Z,11.67
2019-01-05T02:12:26.292Z,14.07
2019-01-05T02:15:18.096Z,12.67
2019-01-05T02:18:52.152Z,12.43
2019-01-05T02:22:11.496Z,13.43
2019-01-05T02:25:32.350Z,14.23
2019-01-05T02:29:09.813Z,14.20
2019-01-05T02:32:24.682Z,13.30
2019-01-05T02:35:49.615Z,13.43
2019-01-05T02:39:14.857Z,14.33
2019-01-05T02:42:51.679Z,16.40
2019-01-05T02:46:31.476Z,13.53
2019-01-05T02:50:03.573Z,13.87
2019-01-05T02:53:06.873Z,15.13
2019-01-05T02:56:40.812Z,17.17
2019-01-05T03:00:07.578Z,14.23
2019-01-05T03:04:02.221Z,14.67
2019-01-05T03:07:25.293Z,15.70
2019-01-05T03:10:43.693Z,11.97
2019-01-05T03:14:11.682Z,13.30
2019-01-05T03:17:36.196Z,15.17
2019-01-05T03:21:08.433Z,13.83
2019-01-05T03:24:36.904Z,13.60
2019-01-05T03:27:57.862Z,13.43
2019-01-05T03:31:11.702Z,12.90
2019-01-05T03:35:17.232Z,13.00
2019-01-05T03:38:43.395Z,12.03
2019-01-05T03:42:10.845Z,13.73
2019-01-05T03:45:37.487Z,12.33
2019-01-05T03:49:01.140Z,11.60
2019-01-05T03:52:08.367Z,13.23
2019-01-05T03:55:52.149Z,10.90
2019-01-05T03:59:15.747Z,12.67
2019-01-05T04:02:39.285Z,22.17
2019-01-05T04:05:54.083Z,12.13
2019-01-05T04:09:04.040Z,15.50
2019-01-05T04:12:32.230Z,11.57
2019-01-05T04:16:11.512Z,13.90
2019-01-05T04:19:38.751Z,14.50
2019-01-05T04:22:59.941Z,13.10
2019-01-05T04:26:43.125Z,13.13
2019-01-05T04:30:07.737Z,14.07
2019-01-05T04:33:45.093Z,13.07
2019-01-05T04:37:03.789Z,13.77
2019-01-05T04:40:46.982Z,14.03
2019-01-05T04:44:17.828Z,13.73
2019-01-05T04:47:39.464Z,13.33
2019-01-05T04:50:51.121Z,13.87
2019-01-05T04:54:26.375Z,12.33
2019-01-05T04:58:01.143Z,11.83
2019-01-05T05:01:46.509Z,13.77
2019-01-05T05:05:43.034Z,16.07
2019-01-05T05:09:24.935Z,13.30
2019-01-05T05:12:51.870Z,14.43
2019-01-05T05:16:25.484Z,13.97
2019-01-05T05:19:55.560Z,14.50
2019-01-05T05:23:17.297Z,12.80
2019-01-05T05:26:40.900Z,13.33
2019-01-05T05:30:13.980Z,13.73
2019-01-05T05:33:50.049Z,16.47
2019-01-05T05:37:18.339Z,12.07
2019-01-05T05:40:41.677Z,13.60
2019-01-05T05:44:43.161Z,13.30
2019-01-05T05:48:12.910Z,15.20
2019-01-05T05:51:53.334Z,15.48
2019-01-05T05:55:16.182Z,14.63
2019-01-05T05:58:31.795Z,14.20
2019-01-05T06:02:05.563Z,15.00
2019-01-05T06:05:27.863Z,17.17
2019-01-05T06:08:59.079Z,17.83
2019-01-05T06:12:33.400Z,18.63
2019-01-05T06:15:50.655Z,17.73
2019-01-05T06:19:32.642Z,19.73
2019-01-05T06:22:52.539Z,17.90
2019-01-05T06:26:32.760Z,16.57
2019-01-05T06:29:41.888Z,17.43
2019-01-05T06:33:17.535Z,17.27
2019-01-05T06:36:45.087Z,15.30
2019-01-05T06:40:16.665Z,16.63
2019-01-05T06:43:59.755Z,18.77
2019-01-05T06:47:39.545Z,19.20
2019-01-05T06:51:04.768Z,17.77
2019-01-05T06:54:37.119Z,17.73
2019-01-05T06:58:08.221Z,18.00
2019-01-05T07:01:47.536Z,15.87
2019-01-05T07:05:19.849Z,16.87
2019-01-05T07:08:52.132Z,14.20
2019-01-05T07:12:25.747Z,13.73
2019-01-05T07:15:51.875Z,18.77
2019-01-05T07:19:21.997Z,14.30
2019-01-05T07:23:04.135Z,11.73
2019-01-05T07:26:40.528Z,14.23
2019-01-05T07:30:27.080Z,29.93
2019-01-05T07:33:50.920Z,15.63
2019-01-05T07:37:29.322Z,19.53
2019-01-05T07:40:56.117Z,19.03
2019-01-05T07:44:16.785Z,23.77
2019-01-05T07:47:46.061Z,23.07
2019-01-05T07:51:20.561Z,20.67
2019-01-05T07:54:51.412Z,20.00
2019-01-05T07:58:25.029Z,18.37
2019-01-05T08:01:54.579Z,14.17
2019-01-05T08:05:24.904Z,15.20
2019-01-05T08:08:57.964Z,11.30
2019-01-05T08:12:50.686Z,10.70
2019-01-05T08:16:23.345Z,11.63
2019-01-05T08:19:47.504Z,19.60
2019-01-05T08:23:17.024Z,18.90
2019-01-05T08:27:12.571Z,16.67
2019-01-05T08:30:31.748Z,16.13
2019-01-05T08:34:15.306Z,11.00
2019-01-05T08:37:58.936Z,10.63
2019-01-05T08:41:36.398Z,8.63
2019-01-05T08:45:04.331Z,8.70
2019-01-05T08:48:20.975Z,6.63
2019-01-05T08:51:31.997Z,8.27
2019-01-05T08:54:54.798Z,10.63
2019-01-05T08:58:35.552Z,13.97
2019-01-05T09:02:00.316Z,17.53
2019-01-05T09:05:20.872Z,10.67
2019-01-05T09:09:03.064Z,8.67
2019-01-05T09:12:33.243Z,8.97
2019-01-05T09:16:01.048Z,4.00
2019-01-05T09:19:43.652Z,4.87
2019-01-05T09:23:34.167Z,7.63
2019-01-05T09:27:20.640Z,5.93
2019-01-05T09:31:02.715Z,2.73
2019-01-05T09:34:36.805Z,9.70
2019-01-05T09:38:03.795Z,15.03
2019-01-05T09:41:20.207Z,8.90
2019-01-05T09:44:52.788Z,20.13
2019-01-05T09:48:39.735Z,10.83
2019-01-05T09:52:27.815Z,8.50
2019-01-05T09:55:58.078Z,7.77
2019-01-05T09:59:26.731Z,5.53
2019-01-05T10:02:43.867Z,23.73
2019-01-05T10:06:21.736Z,12.03
2019-01-05T10:10:01.970Z,6.63
2019-01-05T10:13:22.177Z,5.87
2019-01-05T10:16:49.335Z,5.87
2019-01-05T10:20:27.488Z,6.27
2019-01-05T10:24:00.890Z,4.53
2019-01-05T10:27:22.054Z,7.93
2019-01-05T10:31:01.271Z,8.60
2019-01-05T10:34:28.305Z,7.73
2019-01-05T10:38:09.490Z,8.60
2019-01-05T10:41:33.440Z,7.93
2019-01-05T10:44:54.024Z,8.97
2019-01-05T10:48:24.830Z,25.57
2019-01-05T10:51:46.788Z,26.23
2019-01-05T10:55:03.849Z,11.97
2019-01-05T10:58:19.303Z,8.10
2019-01-05T11:01:41.212Z,6.33
2019-01-05T11:05:25.545Z,6.50
2019-01-05T11:08:44.642Z,5.80
2019-01-05T11:12:17.188Z,6.70
2019-01-05T11:15:30.839Z,6.00
2019-01-05T11:19:21.115Z,15.13
2019-01-05T11:22:44.225Z,24.63
2019-01-05T11:26:08.064Z,29.63
2019-01-05T11:29:55.691Z,41.30
2019-01-05T11:33:43.482Z,25.87
2019-01-05T11:37:09.835Z,16.83
2019-01-05T11:40:42.596Z,21.63
2019-01-05T11:44:19.903Z,20.30
2019-01-05T11:48:05.732Z,8.87
2019-01-05T11:51:24.296Z,9.33
2019-01-05T11:54:52.348Z,16.73
2019-01-05T11:58:39.672Z,25.67
2019-01-05T12:01:56.462Z,12.20
2019-01-05T12:05:37.309Z,10.80
2019-01-05T12:09:19.524Z,9.77
2019-01-05T12:12:44.773Z,12.33
2019-01-05T12:16:04.871Z,10.40
2019-01-05T12:19:29.845Z,13.57
2019-01-05T12:23:17.560Z,14.50
2019-01-05T12:26:58.137Z,11.63
2019-01-05T12:30:34.963Z,10.93
2019-01-05T12:33:49.512Z,9.47
2019-01-05T12:37:29.955Z,20.73
2019-01-05T12:41:04.847Z,9.90
2019-01-05T12:44:30.159Z,8.67
2019-01-05T12:47:59.854Z,9.07
2019-01-05T12:51:14.565Z,7.17
2019-01-05T12:54:42.476Z,8.57
2019-01-05T12:58:21.545Z,8.43
2019-01-05T13:01:54.707Z,9.93
2019-01-05T13:05:25.705Z,7.77
2019-01-05T13:08:57.472Z,21.00
2019-01-05T13:12:22.945Z,9.47
2019-01-05T13:15:44.805Z,8.63
2019-01-05T13:19:39.976Z,7.27
2019-01-05T13:23:11.020Z,6.47
2019-01-05T13:27:04.613Z,6.03
2019-01-05T13:30:27.553Z,7.47
2019-01-05T13:33:50.600Z,8.07
2019-01-05T13:37:08.879Z,7.50
2019-01-05T13:40:39.994Z,10.27
2019-01-05T13:44:03.372Z,10.03
2019-01-05T13:47:44.116Z,9.30
2019-01-05T13:51:46.435Z,12.63
2019-01-05T13:54:33.345Z,9.00
2019-01-05T13:57:33.577Z,11.13
2019-01-05T14:00:20.375Z,10.03
2019-01-05T14:03:08.290Z,8.47
2019-01-05T14:05:55.440Z,6.10
2019-01-05T14:08:55.919Z,7.27
2019-01-05T14:11:42.744Z,7.70
2019-01-05T14:14:43.832Z,10.87
2019-01-05T14:17:35.228Z,6.67
2019-01-05T14:20:22.577Z,8.53
2019-01-05T14:23:29.497Z,14.70
2019-01-05T14:26:20.700Z,9.10
2019-01-05T14:29:09.053Z,18.17
2019-01-05T14:32:06.273Z,14.13
2019-01-05T14:34:50.016Z,19.63
2019-01-05T14:37:41.215Z,16.43
2019-01-05T14:40:44.542Z,33.93
2019-01-05T14:43:35.923Z,41.47
2019-01-05T14:46:23.017Z,14.53
2019-01-05T14:49:10.093Z,11.93
2019-01-05T14:52:08.364Z,14.27
2019-01-05T14:55:08.699Z,11.83
2019-01-05T14:57:54.446Z,11.47
2019-01-05T15:00:42.716Z,10.97
2019-01-05T15:03:46.355Z,8.73
2019-01-05T15:06:33.323Z,7.33
2019-01-05T15:09:22.734Z,8.83
2019-01-05T15:12:19.552Z,8.67
2019-01-05T15:15:10.819Z,9.77
2019-01-05T15:18:11.320Z,11.57
2019-01-05T15:21:17.719Z,10.50
2019-01-05T15:23:57.545Z,10.27
2019-01-05T15:26:45.895Z,13.30
2019-01-05T15:29:43.224Z,9.17
2019-01-05T15:32:37.253Z,12.13
2019-01-05T15:35:28.597Z,12.07
2019-01-05T15:38:35.759Z,9.50
2019-01-05T15:41:22.989Z,8.37
2019-01-05T15:44:10.164Z,9.90
2019-01-05T15:47:10.626Z,9.27
2019-01-05T15:49:57.808Z,10.03
2019-01-05T15:52:44.860Z,10.20
2019-01-05T15:55:36.201Z,11.00
2019-01-05T15:58:23.274Z,18.67
2019-01-05T16:01:10.354Z,12.53
2019-01-05T16:04:01.448Z,14.27
2019-01-05T16:06:54.898Z,11.40
2019-01-05T16:09:43.135Z,12.00
2019-01-05T16:12:31.320Z,12.03
2019-01-05T16:15:18.566Z,13.80
2019-01-05T16:18:20.803Z,11.43
2019-01-05T16:21:24.432Z,12.53
2019-01-05T16:24:11.642Z,14.50
2019-01-05T16:27:02.838Z,14.47
2019-01-05T16:30:03.113Z,15.57
2019-01-05T16:32:57.396Z,13.53
2019-01-05T16:35:44.472Z,13.57
2019-01-05T16:38:31.496Z,13.20
2019-01-05T16:41:29.005Z,11.63
2019-01-05T16:44:20.293Z,16.07
2019-01-05T16:47:07.416Z,13.90
2019-01-05T16:49:54.433Z,11.77
2019-01-05T16:52:36.416Z,13.80
2019-01-05T16:55:24.857Z,11.47
2019-01-05T16:58:08.693Z,11.37
2019-01-05T17:00:56.128Z,14.57
2019-01-05T17:03:53.675Z,13.20
2019-01-05T17:06:41.903Z,11.67
2019-01-05T17:09:29.100Z,13.07
2019-01-05T17:12:29.459Z,11.63
2019-01-05T17:15:26.964Z,12.27
2019-01-05T17:18:20.018Z,12.57
2019-01-05T17:21:11.314Z,12.40
2019-01-05T17:23:58.244Z,11.67
2019-01-05T17:27:01.746Z,12.43
2019-01-05T17:29:50.061Z,28.80
2019-01-05T17:32:41.043Z,14.27
2019-01-05T17:35:35.224Z,13.17
2019-01-05T17:38:38.815Z,12.87
2019-01-05T17:41:25.667Z,14.07
2019-01-05T17:44:26.189Z,11.90
2019-01-05T17:47:09.575Z,13.43
2019-01-05T17:50:06.910Z,12.13
2019-01-05T17:53:07.191Z,11.20
2019-01-05T17:55:54.021Z,10.57
2019-01-05T17:58:42.255Z,12.77
2019-01-05T18:01:29.353Z,10.60
2019-01-05T18:04:16.260Z,11.70
2019-01-05T18:07:07.431Z,10.60
2019-01-05T18:09:58.278Z,11.33
2019-01-05T18:12:49.919Z,12.87
2019-01-05T18:15:38.116Z,11.33
2019-01-05T18:18:25.101Z,11.80
2019-01-05T18:21:22.426Z,17.77
2019-01-05T18:24:16.725Z,30.47
2019-01-05T18:27:07.806Z,17.40
2019-01-05T18:29:56.119Z,12.63
2019-01-05T18:32:52.675Z,12.67
2019-01-05T18:35:49.029Z,11.67
2019-01-05T18:38:34.548Z,11.50
2019-01-05T18:41:28.792Z,11.60
2019-01-05T18:44:15.960Z,11.90
2019-01-05T18:47:04.121Z,29.63
2019-01-05T18:49:51.038Z,11.93
2019-01-05T18:52:38.236Z,11.90
2019-01-05T18:55:25.196Z,9.80
2019-01-05T18:58:22.366Z,11.60
2019-01-05T19:01:16.944Z,8.97
2019-01-05T19:04:04.479Z,10.80
2019-01-05T19:06:55.589Z,8.80
2019-01-05T19:10:02.042Z,10.57
2019-01-05T19:12:50.280Z,10.87
2019-01-05T19:15:47.373Z,8.90
2019-01-05T19:18:45.042Z,8.40
2019-01-05T19:21:46.164Z,9.23
2019-01-05T19:24:29.157Z,9.07
2019-01-05T19:27:20.409Z,12.57
2019-01-05T19:30:07.604Z,9.80
2019-01-05T19:33:10.011Z,9.87
2019-01-05T19:35:57.447Z,8.80
2019-01-05T19:38:48.478Z,9.77
2019-01-05T19:41:40.845Z,8.70
2019-01-05T19:44:34.725Z,10.13
2019-01-05T19:47:21.910Z,10.23
2019-01-05T19:50:09.704Z,13.37
2019-01-05T19:52:56.546Z,12.33
2019-01-05T19:55:50.720Z,11.13
2019-01-05T19:58:41.700Z,9.57
2019-01-05T20:01:28.769Z,12.30
2019-01-05T20:04:32.135Z,10.90
2019-01-05T20:07:18.936Z,9.93
2019-01-05T20:10:05.760Z,9.33
2019-01-05T20:12:52.687Z,11.83
2019-01-05T20:15:39.850Z,9.23
2019-01-05T20:18:46.496Z,8.43
2019-01-05T20:21:47.008Z,10.17
2019-01-05T20:24:47.153Z,10.23
2019-01-05T20:27:33.928Z,10.50
2019-01-05T20:30:20.851Z,9.07
2019-01-05T20:33:08.166Z,9.20
2019-01-05T20:36:08.653Z,10.17
2019-01-05T20:38:54.908Z,9.10
2019-01-05T20:41:43.016Z,13.73
2019-01-05T20:44:43.489Z,8.30
2019-01-05T20:47:47.061Z,8.70
2019-01-05T20:50:30.876Z,8.10
2019-01-05T20:53:21.815Z,10.37
2019-01-05T20:56:22.344Z,9.20
2019-01-05T20:59:10.548Z,10.17
2019-01-05T21:02:11.192Z,8.73
2019-01-05T21:05:17.565Z,9.57
2019-01-05T21:08:06.632Z,8.80
2019-01-05T21:10:52.585Z,9.37
2019-01-05T21:13:39.336Z,11.33
2019-01-05T21:16:24.961Z,9.83
2019-01-05T21:19:28.517Z,8.93
2019-01-05T21:22:34.893Z,10.17
2019-01-05T21:25:41.393Z,9.10
2019-01-05T21:28:38.620Z,7.73
2019-01-05T21:31:25.513Z,6.50
2019-01-05T21:34:26.161Z,10.40
2019-01-05T21:37:13.109Z,10.63
2019-01-05T21:40:00.128Z,9.17
2019-01-05T21:42:47.473Z,9.77
2019-01-05T21:45:34.472Z,8.43
2019-01-05T21:48:25.915Z,8.50
2019-01-05T21:51:14.108Z,13.40
2019-01-05T21:54:08.069Z,13.33
2019-01-05T21:57:08.251Z,7.83
2019-01-05T22:00:14.572Z,8.03
2019-01-05T22:03:05.420Z,6.80
2019-01-05T22:06:11.988Z,9.20
2019-01-05T22:09:06.317Z,7.87
2019-01-05T22:12:09.630Z,10.33
2019-01-05T22:15:00.888Z,7.07
2019-01-05T22:17:59.531Z,8.30
2019-01-05T22:20:53.625Z,6.70
2019-01-05T22:23:46.943Z,8.53
2019-01-05T22:26:53.195Z,6.90
2019-01-05T22:29:39.785Z,8.43
2019-01-05T22:32:28.012Z,10.37
2019-01-05T22:35:17.199Z,7.47
2019-01-05T22:38:16.121Z,8.70
2019-01-05T22:41:15.714Z,9.33
2019-01-05T22:44:02.772Z,7.27
2019-01-05T22:46:50.980Z,7.23
2019-01-05T22:49:38.053Z,8.90
2019-01-05T22:52:28.707Z,8.80
2019-01-05T22:55:17.744Z,7.57
2019-01-05T22:58:18.287Z,8.77
2019-01-05T23:01:06.456Z,7.30
2019-01-05T23:03:47.394Z,7.37
2019-01-05T23:06:35.579Z,9.03
2019-01-05T23:09:36.888Z,7.67
2019-01-05T23:12:24.215Z,9.03
2019-01-05T23:15:12.404Z,12.53
2019-01-05T23:18:02.884Z,9.17
2019-01-05T23:20:50.078Z,8.80
2019-01-05T23:23:46.051Z,7.50
2019-01-05T23:26:32.304Z,6.70
2019-01-05T23:29:20.639Z,7.60
2019-01-05T23:32:12.717Z,7.70
2019-01-05T23:35:06.360Z,7.30
2019-01-05T23:37:57.380Z,7.47
2019-01-05T23:41:00.920Z,10.07
2019-01-05T23:43:57.865Z,15.00
2019-01-05T23:46:46.094Z,8.90
2019-01-05T23:49:32.841Z,7.73
2019-01-05T23:52:27.281Z,6.57
2019-01-05T23:55:15.504Z,7.57
2019-01-05T23:58:12.972Z,8.43
